createdAt,value
2019-06-07T00:01:50.673Z,77822.67
2019-06-07T00:04:21.501Z,77814.59
2019-06-07T00:06:50.889Z,77820.65
2019-06-07T00:09:22.506Z,77820.65
2019-06-07T00:11:51.376Z,77839.84
2019-06-07T00:14:21.269Z,77826.71
2019-06-07T00:16:50.987Z,77821.66
2019-06-07T00:19:20.570Z,77814.59
2019-06-07T00:22:15.781Z,77808.52
2019-06-07T00:24:21.847Z,77805.49
2019-06-07T00:26:58.540Z,77809.53
2019-06-07T00:29:22.548Z,77804.48
2019-06-07T00:31:51.754Z,77806.50
2019-06-07T00:34:23.008Z,77806.50
2019-06-07T00:36:52.887Z,77799.44
2019-06-07T00:39:25.581Z,77807.52
2019-06-07T00:41:53.252Z,77805.49
2019-06-07T00:44:23.584Z,77817.62
2019-06-07T00:46:52.984Z,77817.62
2019-06-07T00:49:40.025Z,77816.61
2019-06-07T00:51:54.119Z,77810.55
2019-06-07T00:54:24.831Z,77814.59
2019-06-07T00:56:54.747Z,77820.65
2019-06-07T00:59:29.196Z,77828.73
2019-06-07T01:01:54.945Z,77832.77
2019-06-07T01:04:26.693Z,77836.81
2019-06-07T01:06:56.073Z,77847.93
2019-06-07T01:09:25.644Z,77852.98
2019-06-07T01:11:55.004Z,77834.80
2019-06-07T01:14:28.081Z,77819.64
2019-06-07T01:17:01.418Z,77816.61
2019-06-07T01:19:27.845Z,77839.84
2019-06-07T01:21:57.486Z,77844.89
2019-06-07T01:24:28.104Z,77835.80
2019-06-07T01:26:57.625Z,77846.92
2019-06-07T01:29:30.909Z,77853.98
2019-06-07T01:31:58.656Z,77845.91
2019-06-07T01:34:28.911Z,77842.88
2019-06-07T01:36:58.850Z,77836.81
2019-06-07T01:39:31.067Z,77818.63
2019-06-07T01:41:59.091Z,77801.45
2019-06-07T01:44:30.729Z,77789.33
2019-06-07T01:46:59.330Z,77790.34
2019-06-07T01:49:29.865Z,77791.34
2019-06-07T01:51:59.388Z,77763.06
2019-06-07T01:57:00.309Z,77754.98
2019-06-07T01:59:31.644Z,77773.16
2019-06-07T02:02:02.737Z,77763.06
2019-06-07T02:04:33.384Z,77763.06
2019-06-07T02:07:04.899Z,77764.07
2019-06-07T02:09:34.282Z,77780.23
2019-06-07T02:12:24.752Z,77806.50
2019-06-07T02:14:34.556Z,77816.61
2019-06-07T02:17:05.692Z,77793.37
2019-06-07T02:19:34.999Z,77775.19
2019-06-07T02:22:04.298Z,77783.27
2019-06-07T02:24:35.812Z,77764.07
2019-06-07T02:27:05.595Z,77777.20
2019-06-07T02:29:35.457Z,77781.25
2019-06-07T02:32:04.706Z,77794.38
2019-06-07T02:34:38.563Z,77786.30
2019-06-07T02:37:05.175Z,77775.19
2019-06-07T02:39:40.182Z,77787.31
2019-06-07T02:42:07.700Z,77792.36
2019-06-07T02:44:39.424Z,77797.41
2019-06-07T02:47:08.413Z,77788.31
2019-06-07T02:49:41.381Z,77788.31
2019-06-07T02:52:09.228Z,77785.28
2019-06-07T02:54:40.525Z,77798.42
2019-06-07T02:57:11.621Z,77801.45
2019-06-07T03:00:05.102Z,77806.50
2019-06-07T03:02:13.585Z,77813.58
2019-06-07T03:04:44.872Z,77817.62
2019-06-07T03:07:14.187Z,77809.53
2019-06-07T03:09:43.983Z,77812.56
2019-06-07T03:12:15.381Z,77816.61
2019-06-07T03:14:44.808Z,77829.74
2019-06-07T03:17:37.817Z,77815.59
2019-06-07T03:20:06.767Z,77814.59
2019-06-07T03:22:39.858Z,77813.58
2019-06-07T03:25:09.606Z,77823.68
2019-06-07T03:27:48.624Z,77840.86
2019-06-07T03:30:36.499Z,77813.58
2019-06-07T03:32:47.169Z,77823.68
2019-06-07T03:35:14.152Z,77813.58
2019-06-07T03:37:43.432Z,77807.52
2019-06-07T03:40:13.143Z,77801.45
2019-06-07T03:42:42.400Z,77793.37
2019-06-07T03:45:12.177Z,77794.38
2019-06-07T03:47:43.033Z,77785.28
2019-06-07T03:50:12.597Z,77788.31
2019-06-07T03:52:41.997Z,77773.16
2019-06-07T03:55:12.304Z,77752.95
2019-06-07T04:00:13.665Z,77704.46
2019-06-07T04:02:43.632Z,77583.23
2019-06-07T04:05:13.129Z,77444.81
2019-06-07T04:07:44.479Z,77369.05
2019-06-07T04:10:14.056Z,77280.16
2019-06-07T04:12:44.421Z,77226.61
2019-06-07T04:15:14.123Z,77251.87
2019-06-07T04:18:00.891Z,77181.16
2019-06-07T04:20:14.992Z,77231.66
2019-06-07T04:22:44.239Z,77343.80
2019-06-07T04:25:13.872Z,77346.83
2019-06-07T04:27:43.145Z,77386.23
2019-06-07T04:30:12.598Z,77381.17
2019-06-07T04:32:45.069Z,77366.02
2019-06-07T04:35:14.845Z,77371.07
2019-06-07T04:37:44.098Z,77348.84
2019-06-07T04:40:13.602Z,77358.95
2019-06-07T04:42:45.241Z,77409.46
2019-06-07T04:45:33.027Z,77381.17
2019-06-07T04:47:46.535Z,77397.34
2019-06-07T04:50:16.137Z,77390.27
2019-06-07T04:52:46.443Z,77469.06
2019-06-07T04:55:16.072Z,77442.80
2019-06-07T04:57:45.752Z,77367.03
2019-06-07T05:00:46.658Z,77332.68
2019-06-07T05:02:47.848Z,77141.75
2019-06-07T05:05:17.162Z,77033.67
2019-06-07T05:07:46.955Z,76930.63
2019-06-07T05:10:16.457Z,76851.84
2019-06-07T05:12:46.206Z,76701.34
2019-06-07T05:15:15.980Z,76787.20
2019-06-07T05:17:47.171Z,76754.88
2019-06-07T05:20:17.165Z,76712.45
2019-06-07T05:22:46.927Z,76659.94
2019-06-07T05:25:17.221Z,76480.15
2019-06-07T05:27:48.181Z,76411.47
2019-06-07T05:33:04.845Z,76412.48
2019-06-07T05:35:35.571Z,76298.35
2019-06-07T05:38:05.487Z,76346.83
2019-06-07T05:40:39.464Z,76398.34
2019-06-07T05:43:10.381Z,76379.15
2019-06-07T05:45:44.994Z,76523.58
2019-06-07T05:48:11.132Z,76675.08
2019-06-07T05:50:49.978Z,76606.40
2019-06-07T05:53:11.446Z,76562.97
2019-06-07T05:55:45.082Z,76428.64
2019-06-07T05:58:12.409Z,76403.39
2019-06-07T06:00:47.146Z,76357.94
2019-06-07T06:03:14.771Z,76332.69
2019-06-07T06:05:53.970Z,76117.57
2019-06-07T06:08:15.053Z,76089.30
2019-06-07T06:10:48.313Z,76332.69
2019-06-07T06:13:17.476Z,76205.44
2019-06-07T06:16:00.886Z,76121.61
2019-06-07T06:18:18.654Z,76256.94
2019-06-07T06:21:09.812Z,76087.28
2019-06-07T06:23:19.311Z,76083.23
2019-06-07T06:25:55.840Z,75934.78
2019-06-07T06:28:20.523Z,76065.06
2019-06-07T06:30:51.044Z,76218.56
2019-06-07T06:33:33.452Z,76157.97
2019-06-07T06:35:52.076Z,75952.95
2019-06-07T06:38:21.488Z,75762.09
2019-06-07T06:41:11.711Z,75612.64
2019-06-07T06:43:21.719Z,75802.49
2019-06-07T06:45:51.034Z,75650.01
2019-06-07T06:48:20.695Z,75729.78
2019-06-07T06:50:52.352Z,76047.89
2019-06-07T06:53:20.897Z,75785.33
2019-06-07T06:55:51.416Z,75972.15
2019-06-07T06:58:21.048Z,75957.00
2019-06-07T07:01:04.945Z,76142.82
2019-06-07T07:05:55.041Z,76091.31
2019-06-07T07:08:24.599Z,76099.39
2019-06-07T07:10:55.059Z,76123.63
2019-06-07T07:13:24.566Z,75913.58
2019-06-07T07:15:57.899Z,76020.63
2019-06-07T07:18:26.680Z,76196.34
2019-06-07T07:20:57.595Z,76560.95
2019-06-07T07:23:27.082Z,76593.27
2019-06-07T07:25:59.223Z,76669.02
2019-06-07T07:28:27.646Z,76669.02
2019-06-07T07:30:57.454Z,76656.91
2019-06-07T07:34:20.083Z,76605.39
2019-06-07T07:36:22.734Z,76651.85
2019-06-07T07:38:31.447Z,76628.63
2019-06-07T07:41:14.133Z,76698.31
2019-06-07T07:43:32.162Z,76658.92
2019-06-07T07:46:03.111Z,76672.05
2019-06-07T07:48:33.076Z,76702.36
2019-06-07T07:51:04.082Z,76718.52
2019-06-07T07:53:48.630Z,76659.94
2019-06-07T07:56:05.988Z,76653.88
2019-06-07T07:58:35.695Z,76625.59
2019-06-07T08:01:10.645Z,76623.57
2019-06-07T08:03:36.713Z,76611.45
2019-06-07T08:06:06.643Z,76570.04
2019-06-07T08:08:35.877Z,76478.13
2019-06-07T08:11:06.139Z,76548.83
2019-06-07T08:13:35.818Z,76518.53
2019-06-07T08:16:13.677Z,76594.28
2019-06-07T08:18:37.714Z,76570.04
2019-06-07T08:21:23.245Z,76546.81
2019-06-07T08:23:37.936Z,76613.47
2019-06-07T08:26:07.296Z,76593.27
2019-06-07T08:28:37.476Z,76593.27
2019-06-07T08:31:07.901Z,76588.22
2019-06-07T08:33:37.634Z,76525.59
2019-06-07T08:36:21.847Z,76431.67
2019-06-07T08:38:47.392Z,76439.75
2019-06-07T08:41:12.003Z,76480.15
2019-06-07T08:43:40.167Z,76503.38
2019-06-07T08:46:09.390Z,76485.20
2019-06-07T08:48:38.682Z,76508.42
2019-06-07T08:51:08.825Z,76558.92
2019-06-07T08:53:38.167Z,76522.56
2019-06-07T08:56:10.876Z,76503.38
2019-06-07T08:58:38.616Z,76467.02
2019-06-07T09:01:09.110Z,76492.27
2019-06-07T09:03:39.345Z,76468.03
2019-06-07T09:06:53.896Z,76485.20
2019-06-07T09:08:40.782Z,76482.17
2019-06-07T09:11:11.168Z,76447.83
2019-06-07T09:13:40.919Z,76406.42
2019-06-07T09:16:10.204Z,76373.09
2019-06-07T09:18:43.901Z,76267.04
2019-06-07T09:21:11.434Z,76366.02
2019-06-07T09:23:40.995Z,76404.40
2019-06-07T09:26:18.390Z,76413.48
2019-06-07T09:28:44.001Z,76326.63
2019-06-07T09:31:14.010Z,76285.22
2019-06-07T09:33:43.331Z,76324.61
2019-06-07T09:36:13.529Z,76348.84
2019-06-07T09:38:44.107Z,76319.56
2019-06-07T09:41:13.649Z,76377.13
2019-06-07T09:46:16.041Z,76449.84
2019-06-07T09:49:10.735Z,76432.67
2019-06-07T09:51:19.631Z,76405.41
2019-06-07T09:53:47.187Z,76399.34
2019-06-07T09:56:16.520Z,76366.02
2019-06-07T09:58:51.765Z,76351.88
2019-06-07T10:01:18.124Z,76315.52
2019-06-07T10:03:47.834Z,76300.38
2019-06-07T10:06:17.416Z,76318.55
2019-06-07T10:11:18.062Z,76333.70
2019-06-07T10:13:47.347Z,76364.00
2019-06-07T10:16:16.921Z,76340.77
2019-06-07T10:18:46.197Z,76252.91
2019-06-07T10:21:17.512Z,76278.16
2019-06-07T10:23:46.754Z,76287.24
2019-06-07T10:26:16.020Z,76292.29
2019-06-07T10:28:45.660Z,76271.08
2019-06-07T10:31:14.894Z,76260.98
2019-06-07T10:33:45.299Z,76216.55
2019-06-07T10:36:14.904Z,76227.66
2019-06-07T10:38:44.499Z,76233.72
2019-06-07T10:41:14.244Z,76251.89
2019-06-07T10:43:43.494Z,76250.88
2019-06-07T10:46:13.113Z,76209.48
2019-06-07T10:48:42.377Z,76166.05
2019-06-07T10:51:14.621Z,76199.38
2019-06-07T10:53:43.194Z,76208.47
2019-06-07T10:56:13.607Z,76206.45
2019-06-07T10:58:44.839Z,76220.58
2019-06-07T11:01:14.621Z,76155.95
2019-06-07T11:03:43.820Z,76113.53
2019-06-07T11:06:14.296Z,76094.34
2019-06-07T11:08:43.765Z,76103.44
2019-06-07T11:11:14.399Z,76075.16
2019-06-07T11:13:43.866Z,76093.33
2019-06-07T11:16:13.512Z,76087.28
2019-06-07T11:18:44.834Z,76044.86
2019-06-07T11:21:14.491Z,76094.34
2019-06-07T11:23:43.866Z,76155.95
2019-06-07T11:26:14.380Z,76158.98
2019-06-07T11:28:43.835Z,76108.48
2019-06-07T11:31:15.081Z,76065.06
2019-06-07T11:33:45.779Z,76099.39
2019-06-07T11:36:15.406Z,76083.23
2019-06-07T11:38:45.241Z,76057.98
2019-06-07T11:41:15.678Z,76035.77
2019-06-07T11:43:45.518Z,76041.83
2019-06-07T11:46:15.167Z,76055.97
2019-06-07T11:48:44.956Z,76052.94
2019-06-07T11:51:14.928Z,76057.98
2019-06-07T11:53:44.280Z,76042.84
2019-06-07T11:56:15.952Z,76014.56
2019-06-07T11:58:45.317Z,75993.36
2019-06-07T12:01:16.643Z,76001.44
2019-06-07T12:03:46.059Z,75971.14
2019-06-07T12:06:16.410Z,75973.16
2019-06-07T12:08:46.074Z,75970.13
2019-06-07T12:11:16.551Z,75978.20
2019-06-07T12:13:46.051Z,75987.30
2019-06-07T12:16:17.244Z,75965.08
2019-06-07T12:18:46.689Z,75926.70
2019-06-07T12:21:16.046Z,75893.38
2019-06-07T12:23:45.691Z,75871.16
2019-06-07T12:26:16.587Z,75872.17
2019-06-07T12:28:46.003Z,75875.20
2019-06-07T12:31:17.073Z,75871.16
2019-06-07T12:33:46.934Z,75869.14
2019-06-07T12:36:17.822Z,75839.86
2019-06-07T12:38:47.514Z,75839.86
2019-06-07T12:41:18.899Z,75865.10
2019-06-07T12:43:48.505Z,75885.30
2019-06-07T12:46:23.360Z,75918.63
2019-06-07T12:48:49.118Z,75866.11
2019-06-07T12:51:21.325Z,75866.11
2019-06-07T12:53:50.585Z,75874.19
2019-06-07T12:56:19.889Z,75905.50
2019-06-07T12:58:50.558Z,75877.22
2019-06-07T13:01:21.391Z,75840.86
2019-06-07T13:03:53.656Z,75818.65
2019-06-07T13:06:23.994Z,75802.49
2019-06-07T13:08:53.298Z,75837.84
2019-06-07T13:11:29.299Z,75821.68
2019-06-07T13:13:53.883Z,75800.47
2019-06-07T13:16:24.229Z,75785.33
2019-06-07T13:18:53.913Z,75823.70
2019-06-07T13:21:24.666Z,75805.52
2019-06-07T13:23:54.329Z,75790.38
2019-06-07T13:26:24.942Z,75775.23
2019-06-07T13:28:54.332Z,75747.96
2019-06-07T13:31:25.301Z,75770.17
2019-06-07T13:33:55.323Z,75802.49
2019-06-07T13:36:24.611Z,75813.59
2019-06-07T13:38:53.840Z,75764.12
2019-06-07T13:41:36.530Z,75772.20
2019-06-07T13:43:54.583Z,75740.89
2019-06-07T13:46:25.269Z,75734.83
2019-06-07T13:48:54.749Z,75750.99
2019-06-07T13:51:25.138Z,75805.52
2019-06-07T13:53:55.042Z,75798.45
2019-06-07T13:56:26.035Z,75748.97
2019-06-07T13:58:55.595Z,75691.41
2019-06-07T14:01:27.215Z,75673.23
2019-06-07T14:03:57.495Z,75588.41
2019-06-07T14:06:27.972Z,75578.31
2019-06-07T14:08:59.058Z,75597.50
2019-06-07T14:11:29.938Z,75559.13
2019-06-07T14:14:00.438Z,75547.02
2019-06-07T14:16:30.411Z,75614.67
2019-06-07T14:18:59.763Z,75595.48
2019-06-07T14:21:30.759Z,75572.25
2019-06-07T14:24:00.491Z,75599.52
2019-06-07T14:26:29.883Z,75611.64
2019-06-07T14:29:00.726Z,75628.80
2019-06-07T14:31:30.460Z,75614.67
2019-06-07T14:34:00.028Z,75580.34
2019-06-07T14:36:31.445Z,75569.23
2019-06-07T14:39:01.321Z,75565.19
2019-06-07T14:41:31.815Z,75567.20
2019-06-07T14:44:01.212Z,75553.07
2019-06-07T14:46:30.651Z,75550.04
2019-06-07T14:49:00.159Z,75543.98
2019-06-07T14:51:31.773Z,75558.12
2019-06-07T14:54:00.735Z,75501.57
2019-06-07T14:56:31.225Z,75481.38
2019-06-07T14:59:03.022Z,75439.98
2019-06-07T15:01:33.461Z,75477.34
2019-06-07T15:04:03.677Z,75495.52
2019-06-07T15:06:33.010Z,75546.00
2019-06-07T15:09:02.562Z,75575.28
2019-06-07T15:11:32.983Z,75635.88
2019-06-07T15:14:02.511Z,75631.83
2019-06-07T15:16:33.854Z,75622.75
2019-06-07T15:19:04.371Z,75615.67
2019-06-07T15:21:35.204Z,75600.53
2019-06-07T15:24:04.570Z,75564.17
2019-06-07T15:26:34.562Z,75532.88
2019-06-07T15:29:04.489Z,75513.69
2019-06-07T15:31:34.654Z,75526.81
2019-06-07T15:34:04.506Z,75583.36
2019-06-07T15:36:36.410Z,75590.44
2019-06-07T15:39:07.608Z,75568.22
2019-06-07T15:41:39.683Z,75567.20
2019-06-07T15:44:09.210Z,75568.22
2019-06-07T15:46:40.206Z,75567.20
2019-06-07T15:49:09.941Z,75571.25
2019-06-07T15:51:40.988Z,75560.14
2019-06-07T15:54:10.697Z,75540.95
2019-06-07T15:56:41.212Z,75556.10
2019-06-07T15:59:10.696Z,75554.08
2019-06-07T16:01:42.064Z,75547.02
2019-06-07T16:04:11.545Z,75549.03
2019-06-07T16:06:43.181Z,75521.77
2019-06-07T16:09:11.850Z,75472.29
2019-06-07T16:11:43.475Z,75469.27
2019-06-07T16:14:13.383Z,75517.73
2019-06-07T16:16:43.366Z,75536.91
2019-06-07T16:19:12.674Z,75523.78
2019-06-07T16:21:42.005Z,75489.45
2019-06-07T16:24:11.467Z,75520.76
2019-06-07T16:26:42.431Z,75555.09
2019-06-07T16:29:11.982Z,75524.80
2019-06-07T16:31:41.251Z,75537.92
2019-06-07T16:34:12.127Z,75592.45
2019-06-07T16:36:42.303Z,75606.59
2019-06-07T16:39:12.163Z,75617.70
2019-06-07T16:41:42.844Z,75661.12
2019-06-07T16:44:12.679Z,75690.41
2019-06-07T16:46:44.896Z,75714.64
2019-06-07T16:49:16.868Z,75724.73
2019-06-07T16:51:49.404Z,75747.96
2019-06-07T16:54:20.535Z,75745.94
2019-06-07T16:56:51.433Z,75792.39
2019-06-07T16:59:24.927Z,75859.05
2019-06-07T17:01:54.240Z,75918.63
2019-06-07T17:04:23.851Z,75947.91
2019-06-07T17:06:53.393Z,76019.61
2019-06-07T17:09:24.005Z,76094.34
2019-06-07T17:11:54.079Z,76196.34
2019-06-07T17:14:24.098Z,76314.51
2019-06-07T17:16:53.763Z,76387.23
2019-06-07T17:19:23.719Z,76437.73
2019-06-07T17:21:52.965Z,76453.89
2019-06-07T17:24:22.576Z,76473.08
2019-06-07T17:26:54.426Z,76485.20
2019-06-07T17:29:23.853Z,76519.54
2019-06-07T17:31:53.187Z,76524.59
2019-06-07T17:34:23.249Z,76519.54
2019-06-07T17:36:52.870Z,76524.59
2019-06-07T17:39:22.167Z,76525.59
2019-06-07T17:42:01.856Z,76518.53
2019-06-07T17:44:24.537Z,76508.42
2019-06-07T17:46:55.635Z,76520.55
2019-06-07T17:49:25.397Z,76514.48
2019-06-07T17:51:54.976Z,76517.52
2019-06-07T17:54:27.651Z,76527.62
2019-06-07T17:56:57.307Z,76516.51
2019-06-07T17:59:26.632Z,76504.39
2019-06-07T18:02:13.265Z,76514.48
2019-06-07T18:04:27.255Z,76500.34
2019-06-07T18:06:57.845Z,76486.20
2019-06-07T18:09:27.521Z,76498.33
2019-06-07T18:11:56.826Z,76494.28
2019-06-07T18:14:26.514Z,76497.31
2019-06-07T18:16:56.508Z,76505.40
2019-06-07T18:19:26.213Z,76512.47
2019-06-07T18:21:58.821Z,76508.42
2019-06-07T18:24:28.643Z,76536.70
2019-06-07T18:26:58.937Z,76542.77
2019-06-07T18:29:30.391Z,76533.67
2019-06-07T18:32:00.427Z,76539.73
2019-06-07T18:34:30.327Z,76569.03
2019-06-07T18:37:01.530Z,76585.19
2019-06-07T18:39:31.100Z,76605.39
2019-06-07T18:42:00.840Z,76615.48
2019-06-07T18:44:30.479Z,76632.66
2019-06-07T18:47:00.822Z,76643.77
2019-06-07T18:49:30.865Z,76618.52
2019-06-07T18:52:22.977Z,76623.57
2019-06-07T18:54:53.162Z,76636.70
2019-06-07T18:57:23.407Z,76639.73
2019-06-07T18:59:54.390Z,76641.75
2019-06-07T19:02:25.369Z,76658.92
2019-06-07T19:04:56.372Z,76663.97
2019-06-07T19:07:27.381Z,76677.10
2019-06-07T19:09:56.991Z,76677.10
2019-06-07T19:12:26.562Z,76679.13
2019-06-07T19:14:55.919Z,76686.20
2019-06-07T19:17:25.214Z,76668.02
2019-06-07T19:19:55.989Z,76679.13
2019-06-07T19:22:25.961Z,76692.25
2019-06-07T19:24:56.932Z,76712.45
2019-06-07T19:27:27.619Z,76733.67
2019-06-07T19:29:57.255Z,76750.84
2019-06-07T19:32:27.280Z,76756.90
2019-06-07T19:34:57.482Z,76776.09
2019-06-07T19:37:26.952Z,76782.16
2019-06-07T19:39:58.026Z,76807.41
2019-06-07T19:42:28.067Z,76795.28
2019-06-07T19:45:16.527Z,76799.32
2019-06-07T19:47:28.914Z,76810.44
2019-06-07T19:49:59.147Z,76805.38
2019-06-07T19:52:28.366Z,76801.34
2019-06-07T19:55:00.121Z,76801.34
2019-06-07T19:57:29.796Z,76797.30
2019-06-07T20:00:02.730Z,76784.17
2019-06-07T20:02:33.425Z,76754.88
2019-06-07T20:05:06.751Z,76739.73
2019-06-07T20:07:34.691Z,76719.53
2019-06-07T20:10:04.806Z,76748.81
2019-06-07T20:12:34.710Z,76762.95
2019-06-07T20:15:25.170Z,76782.16
2019-06-07T20:17:35.993Z,76804.38
2019-06-07T20:20:05.866Z,76825.58
2019-06-07T20:22:35.083Z,76840.73
2019-06-07T20:25:05.045Z,76839.73
2019-06-07T20:27:34.948Z,76838.72
2019-06-07T20:30:04.700Z,76830.63
2019-06-07T20:32:34.310Z,76835.69
2019-06-07T20:35:04.151Z,76849.83
2019-06-07T20:37:33.469Z,76857.91
2019-06-07T20:40:19.559Z,76860.94
2019-06-07T20:42:34.180Z,76881.14
2019-06-07T20:45:03.948Z,76865.98
2019-06-07T20:47:33.833Z,76856.90
2019-06-07T20:50:04.151Z,76874.06
2019-06-07T20:52:33.536Z,76869.02
2019-06-07T20:55:03.242Z,76865.98
2019-06-07T20:57:32.833Z,76873.06
2019-06-07T21:00:10.567Z,76875.08
2019-06-07T21:02:34.142Z,76873.06
2019-06-07T21:05:03.553Z,76878.11
2019-06-07T21:07:32.838Z,76875.08
2019-06-07T21:10:03.638Z,76868.01
2019-06-07T21:12:33.632Z,76850.84
2019-06-07T21:15:07.075Z,76847.80
2019-06-07T21:17:34.167Z,76850.84
2019-06-07T21:20:05.462Z,76855.89
2019-06-07T21:22:34.730Z,76855.89
2019-06-07T21:25:07.094Z,76861.95
2019-06-07T21:27:36.559Z,76870.03
2019-06-07T21:30:07.271Z,76867.00
2019-06-07T21:32:38.440Z,76869.02
2019-06-07T21:35:10.218Z,76884.17
2019-06-07T21:37:39.594Z,76890.23
2019-06-07T21:40:10.335Z,76889.22
2019-06-07T21:42:40.111Z,76879.13
2019-06-07T21:45:10.038Z,76884.17
2019-06-07T21:47:41.876Z,76894.27
2019-06-07T21:50:12.791Z,76912.45
2019-06-07T21:52:42.281Z,76923.56
2019-06-07T21:55:12.043Z,76929.63
2019-06-07T21:57:41.655Z,76938.72
2019-06-07T22:00:17.708Z,76956.90
2019-06-07T22:02:47.049Z,76958.92
2019-06-07T22:05:16.692Z,76964.98
2019-06-07T22:07:46.342Z,76959.92
2019-06-07T22:10:16.334Z,76948.81
2019-06-07T22:12:45.629Z,76953.87
2019-06-07T22:15:32.054Z,76980.13
2019-06-07T22:17:47.647Z,76976.09
2019-06-07T22:20:17.070Z,76990.23
2019-06-07T22:22:46.325Z,76985.19
2019-06-07T22:25:17.540Z,76996.30
2019-06-07T22:27:46.854Z,76992.25
2019-06-07T22:30:16.082Z,76995.28
2019-06-07T22:32:46.720Z,76989.22
2019-06-07T22:35:16.329Z,76993.27
2019-06-07T22:37:45.818Z,76988.21
2019-06-07T22:40:15.473Z,76988.21
2019-06-07T22:42:45.849Z,76988.21
2019-06-07T22:45:16.669Z,76978.11
2019-06-07T22:47:46.522Z,76973.06
2019-06-07T22:50:18.545Z,76957.91
2019-06-07T22:52:51.444Z,76971.04
2019-06-07T22:55:21.996Z,76973.06
2019-06-07T22:57:58.530Z,76967.00
2019-06-07T23:00:30.300Z,76980.13
2019-06-07T23:03:00.045Z,76976.09
2019-06-07T23:05:29.658Z,76959.92
2019-06-07T23:07:59.323Z,76970.03
2019-06-07T23:10:28.612Z,76971.04
2019-06-07T23:12:59.616Z,76957.91
2019-06-07T23:15:29.217Z,76968.01
2019-06-07T23:18:00.368Z,76960.94
2019-06-07T23:20:31.400Z,76965.98
2019-06-07T23:23:02.743Z,76970.03
2019-06-07T23:25:32.387Z,76974.07
2019-06-07T23:28:01.611Z,76972.05
2019-06-07T23:30:31.365Z,76989.22
2019-06-07T23:33:02.084Z,76982.15
2019-06-07T23:35:31.316Z,76968.01
2019-06-07T23:38:00.597Z,76967.00
2019-06-07T23:40:30.258Z,76963.97
2019-06-07T23:42:59.531Z,76950.84
2019-06-07T23:45:29.235Z,76947.80
2019-06-07T23:47:59.001Z,76941.75
2019-06-07T23:50:28.556Z,76933.66
2019-06-07T23:52:59.597Z,76938.72
2019-06-07T23:55:28.882Z,76937.70
2019-06-07T23:57:58.586Z,76953.87
